College Point, New York
Current Conditions -  °F | °C
As of 10:51 PM on Saturday 20 Dec 2014 (Local Time) from KLGA Reporting Station
Overcast Overcast  
Wind Chill: 32°   Ceiling: 2800
Heat Index: 32°   Visibility: 10mi
Dew Point: 22°   Wind: 3mph
Humidity: 66%   Direction: 30°NNE
Pressure: 30.3"   Gusts: NA
Location:  40.79°N, 73.85°W
Report Text: KLGA 210351Z 03003KT 10SM OVC028 00/M06 A3030 RMK AO2 SLP259 T00001056
Loading
Personal Weather Stations






























Interactive Weather Map New forecast layout! Learn more

10-Day Weather Forecast

Advertisements
Track Severe Weather on mobile